Time;durP1;ratioP1;P1;durP2;ratioP2;P2;SDS_P1;SDS_P2;PMS_P1;PMS_P2;Temp;Humidity;BMP_temperature;BMP_pressure;BME280_temperature;BME280_humidity;BME280_pressure;Samples;Min_cycle;Max_cycle;Signal;HPM_P1;HPM_P2
2022/12/27 00:01:25;;;;;;;2.33;1.83;;;;;;;7.27;nan;97152.81;5021381;28;20207;-79
2022/12/27 00:03:53;;;;;;;2.77;1.73;;;;;;;7.27;nan;97172.44;5016856;28;20196;-79
2022/12/27 00:06:23;;;;;;;1.90;1.70;;;;;;;7.17;nan;97150.44;5003650;28;20199;-79
2022/12/27 00:08:50;;;;;;;2.13;1.90;;;;;;;7.17;nan;97153.94;5026378;28;20203;-79
2022/12/27 00:11:19;;;;;;;2.57;2.10;;;;;;;7.12;nan;97147.50;5009248;28;20226;-79
2022/12/27 00:13:46;;;;;;;2.33;2.00;;;;;;;7.19;nan;97165.34;5006987;28;20227;-79
2022/12/27 00:16:20;;;;;;;2.40;2.20;;;;;;;7.20;nan;97158.13;4993787;28;20226;-80
2022/12/27 00:18:49;;;;;;;2.63;2.17;;;;;;;7.15;nan;97150.59;5042225;28;20230;-79
2022/12/27 00:21:17;;;;;;;2.10;1.90;;;;;;;7.25;nan;97153.00;5018673;28;20266;-80
2022/12/27 00:23:47;;;;;;;2.37;2.10;;;;;;;7.21;nan;97144.50;5013678;28;20203;-80
2022/12/27 00:26:17;;;;;;;3.13;2.43;;;;;;;7.15;nan;97155.16;5007175;28;20234;-80
2022/12/27 00:28:44;;;;;;;3.03;2.50;;;;;;;7.05;nan;97143.91;5014713;28;20218;-79
2022/12/27 00:31:12;;;;;;;3.27;2.50;;;;;;;7.12;nan;97163.59;5010847;28;20215;-79
2022/12/27 00:33:41;;;;;;;2.60;2.23;;;;;;;7.03;nan;97151.31;5011115;28;20280;-80
2022/12/27 00:36:13;;;;;;;2.93;2.63;;;;;;;7.15;nan;97168.56;5014175;28;20209;-80
2022/12/27 00:38:41;;;;;;;2.57;2.37;;;;;;;7.11;nan;97159.25;5014372;28;20211;-79
2022/12/27 00:41:08;;;;;;;2.40;2.20;;;;;;;7.20;nan;97160.81;5029004;28;20206;-80
2022/12/27 00:43:35;;;;;;;3.63;2.43;;;;;;;7.13;nan;97151.84;5015683;28;20195;-80
2022/12/27 00:46:03;;;;;;;2.53;2.30;;;;;;;7.22;nan;97177.56;5014004;28;20207;-79
2022/12/27 00:48:30;;;;;;;3.20;2.23;;;;;;;7.21;nan;97170.53;5008921;28;20281;-80
2022/12/27 00:50:59;;;;;;;2.90;2.10;;;;;;;7.17;nan;97169.22;5010987;28;20208;-80
2022/12/27 00:53:28;;;;;;;3.03;2.33;;;;;;;7.22;nan;97166.81;5006718;28;20204;-80
2022/12/27 00:55:56;;;;;;;4.80;2.27;;;;;;;7.27;nan;97163.56;5008860;28;20241;-79
2022/12/27 00:58:23;;;;;;;3.80;2.27;;;;;;;7.23;nan;97155.03;5030226;28;20211;-79
2022/12/27 01:00:51;;;;;;;2.33;2.13;;;;;;;7.23;nan;97163.09;5022781;28;20203;-80
2022/12/27 01:03:19;;;;;;;2.70;2.37;;;;;;;7.21;nan;97159.78;5000527;28;20215;-80
2022/12/27 01:05:46;;;;;;;3.00;2.40;;;;;;;7.16;nan;97163.03;5011895;28;20199;-80
2022/12/27 01:08:13;;;;;;;3.40;3.10;;;;;;;7.14;nan;97183.06;5011827;28;20202;-80
2022/12/27 01:10:44;;;;;;;4.03;2.90;;;;;;;7.16;nan;97189.03;5013685;28;20242;-80
2022/12/27 01:13:12;;;;;;;3.77;2.90;;;;;;;7.10;nan;97174.53;5007261;28;20214;-80
2022/12/27 01:15:41;;;;;;;3.70;3.00;;;;;;;7.17;nan;97180.81;5011105;28;20223;-80
2022/12/27 01:18:08;;;;;;;4.30;3.10;;;;;;;7.11;nan;97192.31;5035429;28;20207;-79
2022/12/27 01:20:37;;;;;;;3.30;2.90;;;;;;;7.09;nan;97194.34;5001436;28;20203;-80
2022/12/27 01:23:04;;;;;;;2.83;2.53;;;;;;;7.14;nan;97180.38;5014723;28;20226;-80
2022/12/27 01:25:31;;;;;;;3.10;2.80;;;;;;;7.26;nan;97189.59;5004117;28;20195;-80
2022/12/27 01:28:00;;;;;;;2.80;2.50;;;;;;;7.21;nan;97187.47;5012231;28;20219;-80
2022/12/27 01:30:27;;;;;;;3.20;2.80;;;;;;;7.15;nan;97190.06;5008814;28;20198;-80
2022/12/27 01:32:54;;;;;;;3.37;2.93;;;;;;;7.12;nan;97191.28;5011111;28;20203;-79
2022/12/27 01:35:21;;;;;;;3.00;2.40;;;;;;;7.16;nan;97210.53;5030389;28;20233;-79
2022/12/27 01:37:48;;;;;;;3.33;2.73;;;;;;;7.19;nan;97207.47;5010799;28;20204;-80
2022/12/27 01:40:15;;;;;;;2.40;2.20;;;;;;;7.18;nan;97198.59;5009678;28;20206;-79
2022/12/27 01:42:54;;;;;;;2.27;2.07;;;;;;;7.19;nan;97221.75;5013227;28;20222;-79
2022/12/27 01:45:26;;;;;;;1.80;1.70;;;;;;;7.18;nan;97221.94;5029424;28;20230;-79
2022/12/27 01:48:01;;;;;;;4.17;2.00;;;;;;;7.15;nan;97209.69;5024415;28;20210;-80
2022/12/27 01:50:33;;;;;;;2.10;1.90;;;;;;;7.20;nan;97222.59;5030407;28;20198;-80
2022/12/27 01:53:07;;;;;;;1.73;1.60;;;;;;;7.14;nan;97232.22;5027162;28;20210;-79
2022/12/27 01:55:42;;;;;;;1.40;1.30;;;;;;;7.22;nan;97233.97;5004305;28;20242;-80
2022/12/27 01:58:13;;;;;;;0.90;0.90;;;;;;;7.26;nan;97235.25;5028752;28;20256;-80
2022/12/27 02:00:45;;;;;;;1.87;0.90;;;;;;;7.30;nan;97233.03;5009912;28;20207;-80
2022/12/27 02:03:17;;;;;;;2.20;1.03;;;;;;;7.27;nan;97231.56;5006904;28;20210;-80
2022/12/27 02:05:44;;;;;;;1.00;0.97;;;;;;;7.24;nan;97234.59;5007163;28;20204;-80
2022/12/27 02:08:21;;;;;;;1.73;0.87;;;;;;;7.15;nan;97222.28;5009826;28;20203;-80
2022/12/27 02:10:50;;;;;;;0.80;0.80;;;;;;;7.15;nan;97222.28;5007395;28;20242;-80
2022/12/27 02:13:18;;;;;;;1.40;1.10;;;;;;;7.19;nan;97227.13;5024051;28;20250;-79
2022/12/27 02:15:47;;;;;;;2.73;1.20;;;;;;;7.20;nan;97223.41;4998057;28;20284;-80
2022/12/27 02:18:14;;;;;;;1.10;1.00;;;;;;;7.27;nan;97247.66;5010876;28;20211;-80
2022/12/27 02:21:05;;;;;;;0.87;0.80;;;;;;;7.21;nan;97235.84;5006845;28;20226;-80
2022/12/27 02:24:02;;;;;;;0.70;0.70;;;;;;;7.30;nan;97241.94;4992477;28;20333;-80
2022/12/27 02:26:41;;;;;;;0.70;0.70;;;;;;;7.18;nan;97243.41;5011472;28;20230;-80
2022/12/27 02:29:49;;;;;;;0.60;0.60;;;;;;;7.28;nan;97237.75;5037427;28;20213;-79
2022/12/27 02:32:27;;;;;;;1.47;0.67;;;;;;;7.14;nan;97234.09;4983664;28;20210;-80
2022/12/27 02:35:04;;;;;;;0.50;0.50;;;;;;;7.06;nan;97231.50;5023461;28;20218;-80
2022/12/27 02:37:36;;;;;;;0.50;0.50;;;;;;;7.03;nan;97237.22;5001418;28;20217;-79
2022/12/27 02:54:25;;;;;;;0.57;0.57;;;;;;;7.14;nan;97239.47;5031943;28;20214;-79
2022/12/27 02:57:09;;;;;;;0.90;0.50;;;;;;;7.12;nan;97242.31;5021922;28;20235;-80
2022/12/27 03:06:41;;;;;;;0.50;0.50;;;;;;;6.97;nan;97249.56;5015163;28;20203;-79
2022/12/27 03:18:19;;;;;;;0.50;0.50;;;;;;;7.02;nan;97263.25;5023855;28;20241;-79
2022/12/27 03:26:23;;;;;;;0.50;0.50;;;;;;;6.88;nan;97255.22;5027581;28;20291;-79
2022/12/27 03:34:34;;;;;;;0.80;0.50;;;;;;;6.94;nan;97265.19;5007471;28;20321;-79
2022/12/27 03:39:56;;;;;;;0.60;0.60;;;;;;;6.90;nan;97255.81;5000898;28;20202;-79
2022/12/27 03:45:14;;;;;;;0.60;0.60;;;;;;;6.83;nan;97253.91;5023831;28;20241;-79
2022/12/27 03:47:46;;;;;;;0.50;0.50;;;;;;;6.81;nan;97261.28;5011099;28;20276;-80
2022/12/27 03:50:21;;;;;;;0.70;0.60;;;;;;;6.80;nan;97256.94;5014881;28;20197;-80
2022/12/27 03:52:54;;;;;;;0.50;0.50;;;;;;;6.81;nan;97255.91;5017967;28;20202;-80
2022/12/27 03:55:23;;;;;;;0.60;0.60;;;;;;;6.81;nan;97257.78;5009226;28;20250;-79
2022/12/27 03:57:51;;;;;;;0.60;0.60;;;;;;;6.81;nan;97258.59;5034132;28;20198;-79
2022/12/27 04:00:19;;;;;;;0.50;0.50;;;;;;;6.81;nan;97258.59;5007847;28;20203;-79
2022/12/27 04:02:46;;;;;;;0.60;0.60;;;;;;;6.75;nan;97251.31;5010636;28;20198;-79
2022/12/27 04:05:13;;;;;;;0.60;0.60;;;;;;;6.66;nan;97247.03;5012692;28;20298;-79
2022/12/27 04:35:09;;;;;;;3.23;0.90;;;;;;;6.66;nan;97260.44;5004572;28;20244;-79
2022/12/27 04:37:36;;;;;;;2.33;0.90;;;;;;;6.66;nan;97263.13;5040641;28;20207;-79
2022/12/27 04:57:00;;;;;;;0.83;0.70;;;;;;;6.61;nan;97289.69;5028125;28;20252;-79
2022/12/27 05:02:13;;;;;;;1.47;0.87;;;;;;;6.56;nan;97286.72;5009112;28;20250;-79
2022/12/27 05:04:41;;;;;;;1.20;0.90;;;;;;;6.54;nan;97287.94;5009505;28;20261;-79
2022/12/27 05:15:27;;;;;;;1.03;0.80;;;;;;;6.75;nan;97286.19;5018662;28;20225;-80
2022/12/27 05:17:56;;;;;;;2.00;0.83;;;;;;;6.69;nan;97288.78;5011754;28;20257;-79
2022/12/27 05:20:25;;;;;;;2.00;1.10;;;;;;;6.68;nan;97292.47;4996570;28;20230;-79
2022/12/27 05:25:41;;;;;;;1.33;0.90;;;;;;;6.64;nan;97296.53;5007581;28;20214;-80
2022/12/27 05:28:10;;;;;;;1.47;0.87;;;;;;;6.65;nan;97296.34;5043461;28;20211;-79
2022/12/27 05:30:40;;;;;;;1.07;1.00;;;;;;;6.60;nan;97303.28;5016111;28;20203;-79
2022/12/27 05:33:09;;;;;;;3.33;1.00;;;;;;;6.44;nan;97291.69;5015554;28;20203;-79
2022/12/27 05:35:36;;;;;;;0.70;0.70;;;;;;;6.50;nan;97295.50;5004416;28;20248;-79
2022/12/27 05:38:03;;;;;;;1.50;1.30;;;;;;;6.45;nan;97300.59;5011945;28;20240;-79
2022/12/27 05:40:31;;;;;;;0.77;0.77;;;;;;;6.50;nan;97300.88;5012587;28;20219;-79
2022/12/27 05:42:59;;;;;;;1.20;0.90;;;;;;;6.55;nan;97314.56;5002851;28;20281;-79
2022/12/27 05:45:26;;;;;;;1.30;1.20;;;;;;;6.60;nan;97316.72;5011279;28;20202;-79
2022/12/27 05:47:53;;;;;;;3.43;1.33;;;;;;;6.53;nan;97310.41;5004475;28;20294;-79
2022/12/27 05:50:21;;;;;;;0.93;0.90;;;;;;;6.46;nan;97315.69;5018318;28;20257;-79
2022/12/27 05:52:53;;;;;;;1.00;0.90;;;;;;;6.38;nan;97311.19;5027011;28;20195;-79
2022/12/27 05:55:20;;;;;;;1.40;0.97;;;;;;;6.40;nan;97317.22;5040389;28;20223;-79
2022/12/27 05:57:47;;;;;;;1.17;1.00;;;;;;;6.44;nan;97323.06;5014964;28;20211;-79
2022/12/27 06:00:17;;;;;;;2.50;1.10;;;;;;;6.44;nan;97325.75;5003723;28;20229;-79
2022/12/27 06:02:45;;;;;;;2.77;1.30;;;;;;;6.40;nan;97327.09;5043893;28;20226;-79
2022/12/27 06:05:11;;;;;;;1.57;1.20;;;;;;;6.41;nan;97329.63;5011812;28;20218;-79
2022/12/27 06:07:40;;;;;;;2.03;1.27;;;;;;;6.32;nan;97303.03;5000916;28;20219;-79
2022/12/27 06:10:08;;;;;;;2.87;1.50;;;;;;;6.46;nan;97329.09;5003392;28;20215;-79
2022/12/27 06:12:36;;;;;;;2.57;1.50;;;;;;;6.48;nan;97337.75;5003338;28;20200;-79
2022/12/27 06:15:04;;;;;;;2.03;1.50;;;;;;;6.52;nan;97328.34;5002831;28;20242;-79
2022/12/27 06:17:32;;;;;;;1.50;1.40;;;;;;;6.62;nan;97337.00;5002872;28;20203;-79
2022/12/27 06:19:59;;;;;;;3.60;1.00;;;;;;;6.43;nan;97322.22;5004592;28;20301;-79
2022/12/27 06:22:26;;;;;;;1.30;1.20;;;;;;;6.54;nan;97338.91;5015873;28;20231;-79
2022/12/27 06:24:54;;;;;;;1.37;1.17;;;;;;;6.45;nan;97327.41;5011311;28;20206;-80
2022/12/27 06:27:24;;;;;;;0.90;0.90;;;;;;;6.46;nan;97339.81;5007330;28;20227;-79
2022/12/27 06:29:51;;;;;;;3.10;0.90;;;;;;;6.41;nan;97320.72;5003349;28;20302;-79
2022/12/27 06:32:18;;;;;;;1.40;1.10;;;;;;;6.42;nan;97325.09;5013069;28;20293;-80
2022/12/27 06:34:45;;;;;;;0.70;0.70;;;;;;;6.36;nan;97331.19;5026630;28;20208;-80
2022/12/27 06:37:13;;;;;;;1.87;1.40;;;;;;;6.33;nan;97327.00;5005797;28;20269;-79
2022/12/27 06:39:40;;;;;;;1.20;1.10;;;;;;;6.38;nan;97329.16;5012592;28;20202;-79
2022/12/27 06:42:08;;;;;;;1.53;0.83;;;;;;;6.43;nan;97338.31;5014197;28;20225;-79
2022/12/27 06:44:35;;;;;;;3.87;1.20;;;;;;;6.35;nan;97334.88;5011822;28;20211;-79
2022/12/27 06:47:03;;;;;;;1.13;1.00;;;;;;;6.37;nan;97327.50;5008712;28;20242;-79
2022/12/27 06:49:30;;;;;;;1.00;0.90;;;;;;;6.43;nan;97337.50;5010827;28;20203;-79
2022/12/27 06:51:57;;;;;;;1.90;0.80;;;;;;;6.44;nan;97349.91;5013576;28;20195;-79
2022/12/27 06:54:24;;;;;;;2.47;0.80;;;;;;;6.44;nan;97357.94;5004007;28;20207;-79
2022/12/27 06:56:51;;;;;;;1.70;0.70;;;;;;;6.54;nan;97358.53;5010943;28;20250;-79
2022/12/27 06:59:20;;;;;;;1.50;1.10;;;;;;;6.56;nan;97364.53;5043941;28;20238;-79
2022/12/27 07:01:47;;;;;;;1.40;0.90;;;;;;;6.42;nan;97351.91;5002071;28;20211;-79
2022/12/27 07:04:14;;;;;;;1.57;1.30;;;;;;;6.36;nan;97360.69;5011188;28;20207;-79
2022/12/27 07:06:41;;;;;;;2.27;1.10;;;;;;;6.43;nan;97383.09;5012259;28;20199;-79
2022/12/27 07:09:08;;;;;;;1.77;0.90;;;;;;;6.42;nan;97368.84;5012546;28;20199;-79
2022/12/27 07:11:37;;;;;;;0.63;0.63;;;;;;;6.41;nan;97375.22;5014881;28;20253;-79
2022/12/27 07:14:08;;;;;;;0.80;0.80;;;;;;;6.45;nan;97378.41;5012689;28;20246;-79
2022/12/27 07:16:36;;;;;;;1.13;0.70;;;;;;;6.42;nan;97370.69;5002561;28;20310;-79
2022/12/27 07:19:03;;;;;;;1.03;0.97;;;;;;;6.40;nan;97389.66;5000624;28;20203;-80
2022/12/27 07:21:30;;;;;;;2.00;1.50;;;;;;;6.24;nan;97380.88;5021166;28;20509;-79
2022/12/27 07:23:57;;;;;;;3.13;1.83;;;;;;;6.27;nan;97377.84;5003727;28;20203;-79
2022/12/27 07:26:27;;;;;;;5.43;2.27;;;;;;;6.27;nan;97392.09;5010709;28;20246;-79
2022/12/27 07:28:55;;;;;;;4.53;2.70;;;;;;;6.32;nan;97400.44;5010761;28;20241;-79
2022/12/27 07:31:25;;;;;;;2.60;1.77;;;;;;;6.31;nan;97396.06;5011484;28;20223;-79
2022/12/27 07:33:56;;;;;;;5.73;2.30;;;;;;;6.28;nan;97392.94;4998437;28;20220;-80
2022/12/27 07:36:25;;;;;;;2.33;1.93;;;;;;;6.36;nan;97417.03;4999993;28;20231;-79
2022/12/27 07:38:55;;;;;;;3.33;2.17;;;;;;;6.34;nan;97409.16;5003463;28;20271;-80
2022/12/27 07:41:23;;;;;;;3.20;2.40;;;;;;;6.30;nan;97412.34;5018863;28;20224;-80
2022/12/27 07:43:50;;;;;;;2.33;2.00;;;;;;;6.37;nan;97403.44;5010972;28;20214;-79
2022/12/27 07:46:20;;;;;;;4.10;2.20;;;;;;;6.60;nan;97408.78;5017896;28;20245;-79
2022/12/27 07:48:48;;;;;;;5.20;3.40;;;;;;;6.85;nan;97420.16;4999404;28;20204;-79
2022/12/27 07:51:17;;;;;;;6.53;4.00;;;;;;;6.56;nan;97402.09;5013151;28;20242;-79
2022/12/27 07:53:44;;;;;;;7.10;5.10;;;;;;;6.55;nan;97427.25;5005182;28;20195;-79
2022/12/27 07:56:13;;;;;;;7.00;5.33;;;;;;;6.46;nan;97405.03;5008817;28;20227;-79
2022/12/27 07:58:42;;;;;;;6.50;4.60;;;;;;;6.47;nan;97405.84;5008339;28;20200;-78
2022/12/27 08:01:14;;;;;;;5.40;4.30;;;;;;;6.47;nan;97417.44;5004963;28;20219;-79
2022/12/27 08:03:41;;;;;;;6.77;3.97;;;;;;;6.50;nan;97421.59;5006425;28;20226;-79
2022/12/27 08:06:19;;;;;;;6.57;4.50;;;;;;;6.50;nan;97418.94;4996658;28;20194;-79
2022/12/27 08:08:47;;;;;;;5.40;3.63;;;;;;;6.47;nan;97411.22;4998079;28;20203;-79
2022/12/27 08:11:14;;;;;;;5.60;3.80;;;;;;;6.53;nan;97421.25;5011886;28;20223;-79
2022/12/27 08:13:42;;;;;;;4.47;3.33;;;;;;;6.55;nan;97411.16;5007884;28;20262;-79
2022/12/27 08:16:14;;;;;;;3.43;3.10;;;;;;;6.55;nan;97418.41;5035079;28;20237;-79
2022/12/27 08:18:41;;;;;;;4.77;3.20;;;;;;;6.58;nan;97416.19;5014822;28;20222;-79
2022/12/27 08:21:08;;;;;;;5.73;3.20;;;;;;;6.59;nan;97417.03;5011244;28;20218;-79
2022/12/27 08:23:35;;;;;;;4.50;2.93;;;;;;;6.60;nan;97418.69;5039713;28;20213;-79
2022/12/27 08:26:04;;;;;;;3.30;2.70;;;;;;;6.57;nan;97416.34;5008479;28;20313;-78
2022/12/27 08:28:31;;;;;;;7.53;4.33;;;;;;;6.49;nan;97409.19;5027523;28;20250;-79
2022/12/27 08:30:59;;;;;;;3.23;2.30;;;;;;;6.55;nan;97405.00;5014234;28;20198;-79
2022/12/27 08:33:29;;;;;;;2.90;1.87;;;;;;;6.59;nan;97411.66;5010578;28;20257;-79
2022/12/27 08:35:57;;;;;;;4.80;2.03;;;;;;;6.57;nan;97411.00;4999032;28;20227;-79
2022/12/27 08:38:24;;;;;;;4.57;2.37;;;;;;;6.66;nan;97426.03;4997225;28;20203;-79
2022/12/27 08:40:56;;;;;;;3.90;2.23;;;;;;;6.67;nan;97422.31;4999912;28;20206;-79
2022/12/27 08:43:24;;;;;;;3.90;2.67;;;;;;;6.76;nan;97429.31;5012402;28;20214;-79
2022/12/27 08:45:54;;;;;;;3.03;2.40;;;;;;;6.76;nan;97426.63;5013362;28;20199;-79
2022/12/27 08:48:21;;;;;;;4.70;2.87;;;;;;;6.76;nan;97430.13;5013447;28;20262;-79
2022/12/27 08:50:48;;;;;;;2.73;1.97;;;;;;;6.81;nan;97432.25;5001142;28;20223;-79
2022/12/27 08:53:15;;;;;;;3.47;2.07;;;;;;;6.71;nan;97421.81;5009076;28;20202;-79
2022/12/27 08:55:42;;;;;;;5.10;3.00;;;;;;;6.83;nan;97435.63;5024238;28;20223;-80
2022/12/27 08:58:10;;;;;;;2.50;1.57;;;;;;;6.86;nan;97446.00;5047458;28;20198;-79
2022/12/27 09:00:39;;;;;;;2.47;1.63;;;;;;;6.86;nan;97437.13;5012804;28;20301;-79
2022/12/27 09:03:08;;;;;;;1.87;1.60;;;;;;;6.84;nan;97438.13;5010794;28;20214;-79
2022/12/27 09:05:35;;;;;;;2.20;1.57;;;;;;;6.86;nan;97450.53;5000323;28;20207;-79
2022/12/27 09:08:06;;;;;;;3.03;2.70;;;;;;;6.83;nan;97439.13;5008449;28;20227;-79
2022/12/27 09:10:33;;;;;;;2.50;2.20;;;;;;;6.95;nan;97450.28;5000435;28;20223;-79
2022/12/27 09:13:00;;;;;;;3.63;2.10;;;;;;;7.00;nan;97453.25;5028877;28;20207;-79
2022/12/27 09:15:27;;;;;;;3.10;2.43;;;;;;;7.11;nan;97460.06;5011557;28;20206;-79
2022/12/27 09:17:56;;;;;;;2.90;2.20;;;;;;;7.08;nan;97449.66;5003312;28;20196;-79
2022/12/27 09:20:23;;;;;;;2.47;2.03;;;;;;;7.23;nan;97464.78;5013567;28;20292;-79
2022/12/27 09:22:50;;;;;;;2.63;1.77;;;;;;;7.23;nan;97455.91;5014094;28;20286;-80
2022/12/27 09:25:18;;;;;;;2.20;2.00;;;;;;;7.35;nan;97467.88;5014818;28;20203;-79
2022/12/27 09:27:45;;;;;;;2.53;1.80;;;;;;;7.32;nan;97473.59;5014024;28;20321;-79
2022/12/27 09:30:12;;;;;;;2.40;2.13;;;;;;;7.26;nan;97479.72;5012851;28;20226;-79
2022/12/27 09:32:39;;;;;;;3.30;2.70;;;;;;;7.31;nan;97477.34;5014710;28;20213;-79
2022/12/27 09:35:08;;;;;;;3.23;2.30;;;;;;;7.34;nan;97474.28;5003541;28;20219;-79
2022/12/27 09:37:35;;;;;;;2.80;2.10;;;;;;;7.38;nan;97477.44;5012913;28;20233;-79
2022/12/27 09:40:09;;;;;;;4.27;1.80;;;;;;;7.44;nan;97490.97;5008635;28;20207;-79
2022/12/27 09:42:46;;;;;;;3.33;1.90;;;;;;;7.45;nan;97497.19;5011904;28;20203;-79
2022/12/27 09:45:19;;;;;;;3.90;1.90;;;;;;;7.40;nan;97489.66;5012689;28;20198;-79
2022/12/27 09:47:56;;;;;;;2.23;1.97;;;;;;;7.45;nan;97489.97;5018931;28;20210;-79
2022/12/27 09:50:30;;;;;;;3.90;2.10;;;;;;;7.44;nan;97487.44;5004089;28;20217;-79
2022/12/27 09:53:02;;;;;;;3.20;2.07;;;;;;;7.45;nan;97489.97;5003359;28;20245;-80
2022/12/27 09:55:38;;;;;;;2.73;2.33;;;;;;;7.35;nan;97472.41;5009450;28;20275;-79
2022/12/27 09:58:18;;;;;;;2.50;1.87;;;;;;;7.50;nan;97476.78;5014254;28;20207;-79
2022/12/27 10:00:45;;;;;;;6.87;2.43;;;;;;;7.59;nan;97475.69;5004884;28;20264;-79
2022/12/27 10:03:12;;;;;;;2.20;1.60;;;;;;;7.55;nan;97474.41;5012551;28;20206;-79
2022/12/27 10:05:47;;;;;;;2.20;1.47;;;;;;;7.54;nan;97470.06;5010761;28;20203;-79
2022/12/27 10:08:30;;;;;;;2.10;1.60;;;;;;;7.54;nan;97467.38;5003621;28;20218;-79
2022/12/27 10:11:08;;;;;;;1.60;1.50;;;;;;;7.56;nan;97465.34;5000739;28;20284;-79
2022/12/27 10:13:47;;;;;;;1.90;1.70;;;;;;;7.66;nan;97470.41;5007903;28;20227;-79
2022/12/27 10:16:24;;;;;;;2.30;1.50;;;;;;;7.71;nan;97478.78;5006040;28;20349;-79
2022/12/27 10:19:08;;;;;;;2.70;1.50;;;;;;;7.53;nan;97463.00;5017781;28;20196;-79
2022/12/27 10:21:50;;;;;;;2.17;1.40;;;;;;;7.57;nan;97461.59;5012372;28;20306;-79
2022/12/27 10:24:21;;;;;;;1.20;1.10;;;;;;;7.73;nan;97467.84;5008777;28;20234;-80
2022/12/27 10:26:49;;;;;;;2.60;1.40;;;;;;;7.89;nan;97473.03;5016865;28;20240;-79
2022/12/27 10:29:21;;;;;;;1.47;1.10;;;;;;;7.93;nan;97461.69;4996079;28;20212;-79
2022/12/27 10:31:48;;;;;;;1.30;1.20;;;;;;;7.89;nan;97456.91;4999384;28;20215;-79
2022/12/27 10:34:22;;;;;;;1.10;1.00;;;;;;;7.96;nan;97455.97;5007617;28;20210;-79
2022/12/27 10:36:52;;;;;;;1.63;1.20;;;;;;;7.98;nan;97461.16;5024891;28;20222;-80
2022/12/27 10:39:21;;;;;;;1.43;1.17;;;;;;;8.06;nan;97460.22;5012421;28;20222;-80
2022/12/27 10:42:00;;;;;;;2.50;1.40;;;;;;;7.98;nan;97445.03;5005945;28;20235;-80
2022/12/27 10:44:29;;;;;;;1.63;1.40;;;;;;;8.16;nan;97466.16;5014721;28;20206;-79
2022/12/27 10:46:57;;;;;;;1.30;1.20;;;;;;;8.10;nan;97450.72;5005044;28;20207;-79
2022/12/27 10:49:27;;;;;;;3.33;1.10;;;;;;;8.10;nan;97445.34;5039114;28;20229;-79
2022/12/27 10:51:58;;;;;;;3.27;1.33;;;;;;;8.18;nan;97450.63;5022956;28;20319;-81
2022/12/27 10:54:27;;;;;;;1.40;1.30;;;;;;;8.10;nan;97446.19;5006476;28;20206;-79
2022/12/27 10:57:15;;;;;;;2.13;1.50;;;;;;;8.14;nan;97444.81;5005614;28;20226;-80
2022/12/27 10:59:42;;;;;;;1.80;1.50;;;;;;;8.26;nan;97448.66;5010342;28;20211;-80
2022/12/27 11:02:17;;;;;;;2.10;1.50;;;;;;;8.20;nan;97449.44;5026935;28;20206;-79
2022/12/27 11:04:57;;;;;;;3.30;1.93;;;;;;;8.21;nan;97442.19;5011900;28;20274;-80
2022/12/27 11:07:30;;;;;;;2.23;1.80;;;;;;;8.53;nan;97441.75;5012972;28;20199;-79
2022/12/27 11:10:07;;;;;;;2.70;1.80;;;;;;;8.83;nan;97433.59;5003317;28;20235;-79
2022/12/27 11:12:35;;;;;;;2.63;1.73;;;;;;;8.88;nan;97426.56;5028982;28;20225;-79
2022/12/27 11:15:04;;;;;;;2.07;1.60;;;;;;;8.90;nan;97426.38;5006148;28;20200;-79
2022/12/27 11:17:37;;;;;;;2.30;1.50;;;;;;;8.68;nan;97422.84;5006296;28;20214;-80
2022/12/27 11:20:19;;;;;;;1.43;1.27;;;;;;;8.39;nan;97418.44;5045260;28;20257;-80
2022/12/27 11:22:52;;;;;;;1.73;1.23;;;;;;;8.21;nan;97420.66;5011453;28;20270;-80
2022/12/27 11:25:20;;;;;;;1.83;1.30;;;;;;;8.11;nan;97409.38;5009141;28;20203;-79
2022/12/27 11:27:51;;;;;;;2.23;1.27;;;;;;;7.97;nan;97405.69;4982634;28;20295;-79
2022/12/27 11:30:23;;;;;;;4.20;1.63;;;;;;;7.96;nan;97417.47;5004458;28;20249;-79
2022/12/27 11:32:52;;;;;;;1.63;1.50;;;;;;;8.00;nan;97405.28;4988769;28;20207;-79
2022/12/27 11:35:21;;;;;;;1.80;1.40;;;;;;;8.21;nan;97405.34;5005283;28;20199;-80
2022/12/27 11:37:51;;;;;;;1.30;1.20;;;;;;;8.11;nan;97391.38;5018196;28;20389;-80
2022/12/27 11:40:25;;;;;;;1.43;1.00;;;;;;;8.14;nan;97392.84;5009486;28;20295;-79
2022/12/27 11:43:00;;;;;;;1.73;1.30;;;;;;;8.14;nan;97388.31;5019827;28;20215;-79
2022/12/27 11:45:34;;;;;;;1.40;1.30;;;;;;;8.09;nan;97365.66;4993253;28;20270;-79
2022/12/27 11:48:07;;;;;;;8.87;4.70;;;;;;;8.08;nan;97380.16;4990741;28;20203;-79
2022/12/27 11:50:46;;;;;;;24.67;13.33;;;;;;;8.06;nan;97380.34;5006857;28;20265;-80
2022/12/27 11:53:28;;;;;;;10.93;6.97;;;;;;;8.04;nan;97377.00;4986818;28;20231;-79
2022/12/27 11:56:17;;;;;;;2.73;2.10;;;;;;;8.03;nan;97380.72;5000465;28;20198;-79
2022/12/27 11:59:02;;;;;;;1.27;1.00;;;;;;;8.03;nan;97375.34;4989377;28;20212;-79
2022/12/27 12:01:58;;;;;;;1.07;0.97;;;;;;;8.05;nan;97377.84;5008368;28;20199;-79
2022/12/27 12:05:10;;;;;;;2.13;1.10;;;;;;;8.13;nan;97375.88;5024699;28;20215;-80
2022/12/27 12:08:01;;;;;;;1.90;1.33;;;;;;;8.16;nan;97364.75;4963927;28;20207;-80
2022/12/27 12:10:40;;;;;;;2.33;1.70;;;;;;;8.23;nan;97356.75;5008102;28;20246;-80
2022/12/27 12:13:38;;;;;;;1.67;1.40;;;;;;;8.31;nan;97356.66;4986730;28;20263;-80
2022/12/27 12:16:35;;;;;;;2.13;1.77;;;;;;;8.45;nan;97365.69;4989850;28;20288;-80
2022/12/27 12:19:21;;;;;;;2.87;1.60;;;;;;;8.45;nan;97363.81;5005817;28;20228;-79
2022/12/27 12:22:03;;;;;;;4.57;1.60;;;;;;;8.47;nan;97355.56;5023197;28;20229;-80
2022/12/27 12:24:42;;;;;;;2.03;1.70;;;;;;;8.49;nan;97348.13;4997868;28;20207;-79
2022/12/27 12:27:30;;;;;;;3.70;1.83;;;;;;;8.56;nan;97349.03;4999941;28;20239;-80
2022/12/27 12:30:12;;;;;;;1.70;1.03;;;;;;;8.51;nan;97346.88;5006163;28;20219;-80
2022/12/27 12:32:54;;;;;;;2.30;1.53;;;;;;;8.54;nan;97348.38;5017639;28;20230;-80
2022/12/27 12:35:36;;;;;;;2.00;1.80;;;;;;;8.55;nan;97352.75;5014640;28;20298;-80
2022/12/27 12:38:12;;;;;;;1.20;1.10;;;;;;;8.67;nan;97359.28;5015627;28;20226;-80
2022/12/27 12:41:20;;;;;;;1.77;1.00;;;;;;;8.66;nan;97353.06;5039256;28;20204;-80
2022/12/27 12:44:22;;;;;;;2.37;1.63;;;;;;;8.88;nan;97353.03;4960021;28;20222;-80
2022/12/27 12:47:00;;;;;;;2.30;1.23;;;;;;;9.01;nan;97343.19;5009253;28;20230;-80
2022/12/27 12:49:48;;;;;;;1.60;1.20;;;;;;;9.10;nan;97346.56;5009780;28;20285;-80
2022/12/27 12:52:34;;;;;;;2.13;1.80;;;;;;;8.91;nan;97336.47;5042453;28;20994;-80
2022/12/27 12:55:25;;;;;;;1.20;1.10;;;;;;;8.90;nan;97354.50;5014989;28;20211;-80
2022/12/27 12:58:08;;;;;;;2.93;1.70;;;;;;;8.72;nan;97343.38;5011984;28;20572;-80
2022/12/27 13:00:57;;;;;;;2.60;1.47;;;;;;;8.71;nan;97353.31;5041274;28;20198;-79
2022/12/27 13:03:53;;;;;;;2.77;1.40;;;;;;;8.59;nan;97343.25;5041957;28;20211;-79
2022/12/27 13:06:57;;;;;;;2.40;1.80;;;;;;;8.57;nan;97348.00;5029922;28;20206;-79
2022/12/27 13:09:38;;;;;;;4.27;1.90;;;;;;;8.52;nan;97335.09;5011357;28;20288;-79
2022/12/27 13:12:12;;;;;;;1.80;1.60;;;;;;;8.48;nan;97336.53;5009990;28;20215;-79
2022/12/27 13:14:54;;;;;;;2.07;1.87;;;;;;;8.44;nan;97334.41;5013589;28;20217;-79
2022/12/27 13:17:29;;;;;;;2.00;1.80;;;;;;;8.41;nan;97334.81;5017037;28;20206;-79
2022/12/27 13:23:03;;;;;;;6.70;1.90;;;;;;;8.46;100.00;97338.56;5122917;27;20543;-80
2022/12/27 13:25:40;;;;;;;1.97;1.70;;;;;;;8.40;100.00;97333.13;5085536;28;20208;-80
2022/12/27 13:28:27;;;;;;;3.03;1.60;;;;;;;8.42;100.00;97334.59;5086558;28;20280;-80
2022/12/27 13:31:02;;;;;;;1.60;1.50;;;;;;;8.33;100.00;97323.16;5086199;28;20209;-79
2022/12/27 13:33:39;;;;;;;2.33;1.90;;;;;;;8.39;100.00;97342.22;5081736;28;20265;-80
2022/12/27 13:36:20;;;;;;;2.80;2.07;;;;;;;8.34;100.00;97335.56;5077858;28;20196;-79
2022/12/27 13:39:08;;;;;;;2.60;2.00;;;;;;;8.32;100.00;97331.41;5071866;28;20217;-79
2022/12/27 13:41:50;;;;;;;1.93;1.60;;;;;;;8.39;100.00;97339.53;5089525;28;20232;-79
2022/12/27 13:44:39;;;;;;;2.03;1.60;;;;;;;8.38;100.00;97345.94;5076829;28;20215;-80
2022/12/27 13:47:48;;;;;;;1.80;1.60;;;;;;;8.33;100.00;97342.00;5083618;28;20202;-80
2022/12/27 13:50:58;;;;;;;8.43;6.30;;;;;;;8.29;100.00;97337.13;5078553;28;20304;-79
2022/12/27 13:53:51;;;;;;;5.17;2.90;;;;;;;8.28;100.00;97346.22;5090107;28;20342;-79
2022/12/27 13:56:29;;;;;;;2.90;1.50;;;;;;;8.31;100.00;97345.88;5061394;28;20308;-80
2022/12/27 13:59:24;;;;;;;1.40;1.30;;;;;;;8.32;100.00;97336.78;5072359;28;20206;-80
2022/12/27 14:02:19;;;;;;;1.63;1.30;;;;;;;8.37;100.00;97350.50;5079958;28;20230;-80
2022/12/27 14:05:24;;;;;;;2.03;1.30;;;;;;;8.37;100.00;97355.03;5061037;28;20308;-80
2022/12/27 14:08:00;;;;;;;2.93;1.30;;;;;;;8.32;100.00;97347.56;5095533;28;20205;-80
2022/12/27 14:10:36;;;;;;;2.73;1.53;;;;;;;8.29;100.00;97348.72;5079334;28;20216;-79
2022/12/27 14:13:07;;;;;;;1.47;1.30;;;;;;;8.29;100.00;97358.66;5073492;28;20205;-79